.
WxDataArchive / Data Records for 2016-06-03
2016-06-02 June 2016 2016-06-04

Data Records for Friday, 03 June 2016

Time	Temp	Chill	HIndex	Humid	Dewpt	 Wind 	HiWind	WindDir	Rain 	Barom
-----	----	-----	------	-----	-----	------	------	-------	-----	-----
00:00	66.6	66.6	66.6	53	48.9	0	0	---	0.00	29.992 
00:05	66.3	66.3	66.3	53	48.6	0	0	---	0.00	29.992 
00:10	66.0	66.0	66.0	54	48.9	0	0	---	0.00	29.992 
00:15	65.8	65.8	65.8	54	48.7	0	0	---	0.00	29.992 
00:20	65.6	65.6	65.6	55	49.0	0	0	---	0.00	29.992 
00:25	65.3	65.3	65.3	55	48.7	0	0	---	0.00	29.992 
00:30	65.2	65.2	65.2	55	48.6	0	0	---	0.00	29.984 
00:35	65.0	65.0	65.0	56	48.9	0	0	---	0.00	29.984 
00:40	64.7	64.7	64.7	56	48.6	0	0	---	0.00	29.984 
00:45	64.5	64.5	64.5	57	48.9	0	0	---	0.00	29.984 
00:50	64.5	64.5	64.5	57	48.9	0	0	---	0.00	29.984 
00:55	64.3	64.3	64.3	58	49.2	0	0	---	0.00	29.984 
01:00	64.0	64.0	64.0	59	49.4	0	0	---	0.00	29.985 
01:05	63.7	63.7	63.7	59	49.1	0	0	---	0.00	29.985 
01:10	63.4	63.4	63.4	60	49.3	0	0	---	0.00	29.985 
01:15	63.1	63.1	63.1	61	49.4	0	0	---	0.00	29.987 
01:20	62.6	62.6	62.6	63	49.8	0	0	---	0.00	29.987 
01:25	62.1	62.1	62.1	63	49.3	0	0	---	0.00	29.987 
01:30	61.8	61.8	61.8	64	49.5	0	0	---	0.00	29.990 
01:35	61.3	61.3	61.3	65	49.4	0	0	---	0.00	29.990 
01:40	61.0	61.0	61.0	66	49.6	0	0	---	0.00	29.990 
01:45	60.7	60.7	60.7	66	49.3	0	0	---	0.00	29.995 
01:50	60.5	60.5	60.5	69	50.3	0	0	---	0.00	29.995 
01:55	60.2	60.2	60.2	69	50.0	0	0	---	0.00	29.995 
02:00	59.9	59.9	59.9	69	49.7	0	0	---	0.00	29.994 
02:05	59.6	59.6	59.6	70	49.8	0	0	---	0.00	29.994 
02:10	59.5	59.5	59.5	71	50.1	0	0	---	0.00	29.994 
02:15	59.2	59.2	59.2	72	50.2	0	0	---	0.00	29.993 
02:20	58.9	58.9	58.9	72	49.9	0	0	---	0.00	29.993 
02:25	58.7	58.7	58.7	73	50.1	0	0	---	0.00	29.993 
02:30	58.6	58.6	58.6	73	50.0	0	0	---	0.00	29.990 
02:35	58.4	58.4	58.4	74	50.1	0	0	---	0.00	29.990 
02:40	58.3	58.3	58.3	75	50.4	0	0	---	0.00	29.990 
02:45	58.1	58.1	58.1	75	50.2	0	0	---	0.00	29.989 
02:50	58.0	58.0	58.0	76	50.5	0	0	---	0.00	29.989 
02:55	57.6	57.6	57.6	77	50.4	0	0	---	0.00	29.989 
03:00	57.5	57.5	57.5	77	50.3	0	0	---	0.00	29.989 
03:05	57.3	57.3	57.3	77	50.1	0	0	---	0.00	29.989 
03:10	57.2	57.2	57.2	78	50.4	0	0	---	0.00	29.989 
03:15	57.0	57.0	57.0	78	50.2	0	0	---	0.00	29.990 
03:20	56.9	56.9	56.9	79	50.5	0	0	---	0.00	29.990 
03:25	56.7	56.7	56.7	80	50.6	0	0	---	0.00	29.990 
03:30	56.6	56.6	56.6	80	50.5	0	0	---	0.00	29.989 
03:35	56.5	56.5	56.5	80	50.4	0	0	---	0.00	29.989 
03:40	56.5	56.5	56.5	81	50.7	0	0	---	0.00	29.989 
03:45	56.3	56.3	56.3	81	50.5	0	0	---	0.00	29.993 
03:50	56.2	56.2	56.2	81	50.4	0	0	---	0.00	29.993 
03:55	56.0	56.0	56.0	81	50.3	0	0	---	0.00	29.993 
04:00	55.9	55.9	55.9	82	50.5	0	0	---	0.00	29.991 
04:05	55.7	55.7	55.7	82	50.3	0	0	---	0.00	29.991 
04:10	55.6	55.6	55.6	82	50.2	0	0	---	0.00	29.991 
04:15	55.4	55.4	55.4	83	50.3	0	0	---	0.00	29.995 
04:20	55.3	55.3	55.3	83	50.2	0	0	---	0.00	29.995 
04:25	55.3	55.3	55.3	84	50.5	0	0	---	0.00	29.995 
04:30	55.1	55.1	55.1	84	50.4	0	0	---	0.00	29.995 
04:35	55.0	55.0	55.0	84	50.3	0	0	---	0.00	29.995 
04:40	54.8	54.8	54.8	84	50.1	0	0	---	0.00	29.995 
04:45	54.7	54.7	54.7	84	50.0	0	0	---	0.00	29.992 
04:50	54.7	54.7	54.7	85	50.3	0	0	---	0.00	29.992 
04:55	54.5	54.5	54.5	85	50.1	0	0	---	0.00	29.992 
05:00	54.5	54.5	54.5	85	50.1	0	0	---	0.00	29.992 
05:05	54.5	54.5	54.5	85	50.1	0	0	---	0.00	29.992 
05:10	54.4	54.4	54.4	85	50.0	0	0	---	0.00	29.992 
05:15	54.4	54.4	54.4	86	50.3	0	0	---	0.00	29.995 
05:20	54.2	54.2	54.2	86	50.1	0	0	---	0.00	29.995 
05:25	54.1	54.1	54.1	86	50.0	0	0	---	0.00	29.995 
05:30	54.1	54.1	54.1	87	50.3	0	0	---	0.00	30.000 
05:35	54.1	54.1	54.1	87	50.3	0	0	---	0.00	30.000 
05:40	54.2	54.2	54.2	87	50.4	0	0	---	0.00	30.000 
05:45	54.5	54.5	54.5	87	50.7	0	0	---	0.00	30.005 
05:50	54.5	54.5	54.5	87	50.7	0	0	---	0.00	30.005 
05:55	54.4	54.4	54.4	86	50.3	0	0	---	0.00	30.005 
06:00	54.4	54.4	54.4	86	50.3	0	0	---	0.00	30.006 
06:05	54.2	54.2	54.2	86	50.1	0	0	---	0.00	30.006 
06:10	54.1	54.1	54.1	86	50.0	0	0	---	0.00	30.006 
06:15	54.1	54.1	54.1	87	50.3	0	0	---	0.00	30.007 
06:20	54.1	54.1	54.1	87	50.3	0	0	---	0.00	30.007 
06:25	54.1	54.1	54.1	87	50.3	0	0	---	0.00	30.007 
06:30	54.1	54.1	54.1	87	50.3	0	0	---	0.00	30.007 
06:35	54.2	54.2	54.2	87	50.4	0	0	---	0.00	30.007 
06:40	54.2	54.2	54.2	87	50.4	0	0	---	0.00	30.007 
06:45	54.4	54.4	54.4	87	50.6	0	0	---	0.00	30.009 
06:50	54.5	54.5	54.5	87	50.7	0	0	---	0.00	30.009 
06:55	54.7	54.7	54.7	88	51.2	0	0	---	0.00	30.009 
07:00	55.0	55.0	55.0	88	51.5	0	0	---	0.00	30.017 
07:05	55.3	55.3	55.3	88	51.8	0	0	---	0.00	30.017 
07:10	55.9	55.9	55.9	87	52.1	0	0	---	0.00	30.017 
07:15	56.3	56.3	56.3	87	52.5	0	0	---	0.00	30.020 
07:20	56.9	56.9	56.9	86	52.8	0	0	---	0.00	30.020 
07:25	57.5	57.5	57.5	84	52.7	0	1	292	0.00	30.020 
07:30	58.0	58.0	58.0	84	53.2	0	0	---	0.00	30.020 
07:35	58.4	58.4	58.4	82	52.9	0	0	---	0.00	30.020 
07:40	59.0	59.0	59.0	80	52.8	0	1	292	0.00	30.020 
07:45	59.6	59.6	59.6	79	53.1	0	1	292	0.00	30.019 
07:50	60.2	60.2	60.2	77	53.0	0	1	292	0.00	30.019 
07:55	60.9	60.9	60.9	75	52.9	0	2	292	0.00	30.019 
08:00	61.8	61.8	61.8	73	53.0	0	2	292	0.00	30.020 
08:05	62.6	62.6	62.6	71	53.1	0	1	292	0.00	30.020 
08:10	63.5	63.5	63.5	69	53.1	0	1	292	0.00	30.020 
08:15	64.3	64.3	64.3	67	53.1	0	2	292	0.00	30.025 
08:20	65.0	65.0	65.0	66	53.4	0	2	292	0.00	30.025 
08:25	65.6	65.6	65.6	64	53.1	0	2	292	0.00	30.025 
08:30	66.3	66.3	66.3	65	54.2	0	1	292	0.00	30.027 
08:35	66.6	66.6	66.6	64	54.0	0	1	292	0.00	30.027 
08:40	66.6	66.6	66.6	63	53.6	0	1	292	0.00	30.027 
08:45	66.9	66.9	66.9	62	53.4	0	2	292	0.00	30.027 
08:50	67.6	67.6	67.6	59	52.8	0	2	292	0.00	30.027 
08:55	68.3	68.3	68.3	58	52.9	0	2	292	0.00	30.027 
09:00	68.8	68.8	68.8	58	53.4	0	1	292	0.00	30.027 
09:05	69.3	69.3	69.3	56	52.9	0	3	292	0.00	30.027 
09:10	69.8	69.8	69.8	56	53.4	0	3	292	0.00	30.027 
09:15	70.1	70.1	70.1	55	53.2	0	3	292	0.00	30.032 
09:20	70.1	70.1	70.1	54	52.7	0	2	292	0.00	30.032 
09:25	70.1	70.1	70.1	55	53.2	0	1	292	0.00	30.032 
09:30	70.3	70.3	70.3	54	52.9	0	1	292	0.00	30.032 
09:35	70.6	70.6	70.6	54	53.1	0	1	292	0.00	30.032 
09:40	70.9	70.9	70.9	54	53.4	0	2	292	0.00	30.032 
09:45	71.3	71.3	71.3	53	53.3	0	1	292	0.00	30.034 
09:50	71.8	71.8	71.8	53	53.7	0	1	292	0.00	30.034 
09:55	72.5	72.5	72.5	53	54.4	0	1	292	0.00	30.034 
10:00	73.0	73.0	73.0	51	53.8	0	3	292	0.00	30.032 
10:05	73.0	73.0	73.0	49	52.7	0	2	292	0.00	30.032 
10:10	73.2	73.2	73.2	49	52.9	1	3	68	0.00	30.032 
10:15	73.3	73.3	73.3	48	52.4	1	3	68	0.00	30.033 
10:20	73.3	73.3	73.3	48	52.4	1	3	68	0.00	30.033 
10:25	73.3	73.3	73.3	48	52.4	1	3	68	0.00	30.033 
10:30	73.5	73.5	73.5	48	52.6	0	3	68	0.00	30.035 
10:35	73.9	73.9	73.9	47	52.4	0	2	68	0.00	30.035 
10:40	74.2	74.2	74.2	46	52.1	0	2	68	0.00	30.035 
10:45	74.6	74.6	74.6	45	51.8	0	2	68	0.00	30.035 
10:50	74.9	74.9	74.9	44	51.5	0	2	68	0.00	30.035 
10:55	75.3	75.3	77.7	43	51.2	0	1	68	0.00	30.035 
11:00	75.1	75.1	77.6	44	51.7	1	3	68	0.00	30.032 
11:05	74.9	74.9	74.9	44	51.5	0	1	68	0.00	30.032 
11:10	74.7	74.7	74.7	43	50.7	1	3	68	0.00	30.032 
11:15	74.7	74.7	74.7	46	52.5	0	2	68	0.00	30.033 
11:20	74.9	74.9	74.9	43	50.9	0	2	68	0.00	30.033 
11:25	75.1	75.1	77.6	44	51.7	0	3	68	0.00	30.033 
11:30	75.3	75.3	77.7	46	53.1	0	2	68	0.00	30.033 
11:35	75.6	75.6	77.8	46	53.3	0	2	68	0.00	30.033 
11:40	75.4	75.4	77.7	44	52.0	0	2	68	0.00	30.033 
11:45	75.4	75.4	77.8	46	53.2	0	1	68	0.00	30.032 
11:50	75.6	75.6	77.8	45	52.7	1	3	68	0.00	30.032 
11:55	76.0	76.0	78.0	44	52.5	0	2	68	0.00	30.032 
12:00	76.0	76.0	77.9	42	51.2	1	2	68	0.00	30.034 
12:05	76.3	76.3	78.0	42	51.5	1	3	68	0.00	30.034 
12:10	76.1	76.1	77.9	42	51.3	1	2	68	0.00	30.034 
12:15	76.1	76.1	78.0	43	52.0	0	1	68	0.00	30.031 
12:20	76.0	76.0	77.9	42	51.2	0	2	292	0.00	30.031 
12:25	75.8	75.8	77.8	43	51.7	0	2	292	0.00	30.031 
12:30	75.8	75.8	77.8	43	51.7	0	2	292	0.00	30.030 
12:35	75.8	75.8	77.8	43	51.7	0	1	292	0.00	30.030 
12:40	76.3	76.3	78.0	42	51.5	1	5	90	0.00	30.030 
12:45	77.2	77.2	78.5	43	52.9	1	4	90	0.00	30.027 
12:50	77.7	77.7	78.6	41	52.1	0	3	0	0.00	30.027 
12:55	77.9	77.9	78.7	41	52.3	0	2	0	0.00	30.027 
13:00	77.9	77.9	78.7	40	51.6	1	3	338	0.00	30.023 
13:05	77.9	77.9	78.7	40	51.6	1	3	315	0.00	30.023 
13:10	78.1	78.1	78.9	43	53.8	0	1	292	0.00	30.023 
13:15	78.3	78.3	78.9	40	52.0	0	2	292	0.00	30.027 
13:20	78.1	78.1	78.7	39	51.1	0	1	292	0.00	30.027 
13:25	77.7	77.7	78.5	39	50.7	1	4	292	0.00	30.027 
13:30	77.7	77.7	78.5	39	50.7	1	4	292	0.00	30.021 
13:35	77.6	77.6	78.5	39	50.7	1	4	292	0.00	30.021 
13:40	77.6	77.6	78.5	40	51.3	1	4	292	0.00	30.021 
13:45	78.3	78.3	78.8	39	51.3	1	3	112	0.00	30.020 
13:50	78.8	78.8	78.9	36	49.6	0	1	112	0.00	30.020 
13:55	79.2	79.2	79.3	39	52.1	0	2	112	0.00	30.020 
14:00	79.6	79.6	79.6	39	52.4	0	3	112	0.00	30.020 
14:05	79.4	79.4	79.3	37	50.8	1	3	292	0.00	30.020 
14:10	79.6	79.6	79.2	33	47.9	0	2	292	0.00	30.020 
14:15	79.8	79.8	79.1	30	45.6	1	4	292	0.00	30.020 
14:20	80.1	80.1	79.3	31	46.7	1	4	315	0.00	30.020 
14:25	80.5	80.5	79.6	31	47.1	0	2	68	0.00	30.020 
14:30	80.7	80.7	79.9	34	49.7	1	4	292	0.00	30.018 
14:35	80.3	80.3	79.4	31	46.9	2	4	292	0.00	30.018 
14:40	80.3	80.3	79.4	31	46.9	2	4	292	0.00	30.018 
14:45	80.5	80.5	79.6	31	47.1	1	3	292	0.00	30.011 
14:50	81.2	81.2	80.1	32	48.5	0	3	292	0.00	30.011 
14:55	81.4	81.4	80.0	29	46.1	1	3	292	0.00	30.011 
15:00	81.4	81.4	80.0	29	46.1	1	4	292	0.00	30.006 
15:05	81.4	81.4	79.9	28	45.1	1	3	292	0.00	30.006 
15:10	81.6	81.6	80.2	30	47.1	0	3	292	0.00	30.006 
15:15	82.0	82.0	80.7	33	50.0	0	2	292	0.00	30.005 
15:20	82.0	82.0	80.4	29	46.6	0	2	292	0.00	30.005 
15:25	82.4	82.4	80.8	30	47.8	0	1	292	0.00	30.005 
15:30	83.0	83.0	81.0	27	45.5	0	2	292	0.00	30.002 
15:35	83.4	83.4	81.2	26	44.9	1	3	292	0.00	30.002 
15:40	83.6	83.6	81.4	27	46.1	0	2	292	0.00	30.002 
15:45	83.0	83.0	80.9	26	44.6	1	4	292	0.00	29.997 
15:50	82.6	82.6	80.7	27	45.2	0	3	292	0.00	29.997 
15:55	82.8	82.8	81.2	31	49.0	0	2	292	0.00	29.997 
16:00	82.4	82.4	80.6	28	46.0	1	3	292	0.00	29.991 
16:05	81.8	81.8	80.3	29	46.4	1	5	292	0.00	29.991 
16:10	81.6	81.6	80.2	30	47.1	1	3	292	0.00	29.991 
16:15	81.4	81.4	80.2	32	48.7	1	3	292	0.00	29.992 
16:20	81.6	81.6	80.4	32	48.9	0	2	292	0.00	29.992 
16:25	82.0	82.0	80.5	30	47.5	1	5	292	0.00	29.992 
16:30	82.6	82.6	81.0	31	48.9	0	3	292	0.00	29.989 
16:35	82.6	82.6	80.8	29	47.1	1	4	315	0.00	29.989 
16:40	82.2	82.2	80.6	30	47.7	0	2	315	0.00	29.989 
16:45	82.2	82.2	80.6	30	47.7	1	4	315	0.00	29.985 
16:50	82.2	82.2	80.7	31	48.5	1	3	292	0.00	29.985 
16:55	82.4	82.4	80.8	30	47.8	0	2	338	0.00	29.985 
17:00	82.4	82.4	80.7	29	46.9	1	4	112	0.00	29.982 
17:05	82.4	82.4	80.8	30	47.8	1	4	112	0.00	29.982 
17:10	82.6	82.6	80.8	28	46.2	1	4	112	0.00	29.982 
17:15	82.4	82.4	80.8	30	47.8	0	3	315	0.00	29.978 
17:20	82.6	82.6	80.8	29	47.1	0	1	315	0.00	29.978 
17:25	83.0	83.0	81.0	28	46.5	0	1	315	0.00	29.978 
17:30	82.6	82.6	80.9	30	48.0	1	5	292	0.00	29.976 
17:35	82.6	82.6	80.8	28	46.2	2	4	292	0.00	29.976 
17:40	82.0	82.0	80.3	28	45.7	1	4	270	0.00	29.976 
17:45	81.8	81.8	80.1	27	44.5	0	4	292	0.00	29.975 
17:50	81.6	81.6	80.1	28	45.3	1	3	292	0.00	29.975 
17:55	81.4	81.4	79.9	28	45.1	0	1	292	0.00	29.975 
18:00	81.4	81.4	79.9	28	45.1	1	3	292	0.00	29.977 
18:05	81.4	81.4	79.9	28	45.1	0	1	292	0.00	29.977 
18:10	81.6	81.6	80.1	28	45.3	0	3	292	0.00	29.977 
18:15	81.8	81.8	80.3	29	46.4	0	1	292	0.00	29.971 
18:20	81.6	81.6	80.1	28	45.3	0	1	292	0.00	29.971 
18:25	81.4	81.4	79.9	28	45.1	0	1	292	0.00	29.971 
18:30	81.2	81.2	79.8	28	45.0	0	1	292	0.00	29.971 
18:35	81.1	81.1	79.8	29	45.8	1	4	68	0.00	29.971 
18:40	80.9	80.9	79.5	27	43.8	0	2	68	0.00	29.971 
18:45	80.7	80.7	79.6	30	46.4	0	3	68	0.00	29.964 
18:50	80.5	80.5	79.4	28	44.4	0	2	68	0.00	29.964 
18:55	80.1	80.1	79.2	30	45.8	0	1	68	0.00	29.964 
19:00	79.9	79.9	79.1	30	45.7	0	1	68	0.00	29.962 
19:05	79.9	79.9	79.0	28	43.9	0	2	68	0.00	29.962 
19:10	79.9	79.9	79.2	31	46.5	0	3	68	0.00	29.962 
19:15	79.9	79.9	79.1	29	44.8	0	0	---	0.00	29.954 
19:20	79.8	79.8	79.1	30	45.6	0	1	68	0.00	29.954 
19:25	79.8	79.8	79.0	29	44.7	0	3	68	0.00	29.954 
19:30	79.6	79.6	79.0	30	45.4	0	0	---	0.00	29.954 
19:35	79.4	79.4	78.8	30	45.2	0	0	---	0.00	29.954 
19:40	79.2	79.2	78.7	30	45.1	0	0	---	0.00	29.954 
19:45	79.0	79.0	78.7	31	45.8	0	0	---	0.00	29.957 
19:50	78.8	78.8	78.6	31	45.6	0	0	---	0.00	29.957 
19:55	78.6	78.6	78.5	32	46.3	0	0	---	0.00	29.957 
20:00	78.5	78.5	78.5	32	46.2	0	0	---	0.00	29.957 
20:05	78.3	78.3	78.4	32	46.0	0	0	---	0.00	29.957 
20:10	78.1	78.1	78.3	32	45.8	0	0	---	0.00	29.957 
20:15	77.9	77.9	78.3	33	46.5	0	0	---	0.00	29.957 
20:20	77.7	77.7	78.1	32	45.5	0	0	---	0.00	29.957 
20:25	77.4	77.4	78.0	33	46.0	0	0	---	0.00	29.957 
20:30	77.2	77.2	77.9	32	45.0	0	0	---	0.00	29.953 
20:35	77.0	77.0	77.9	34	46.5	0	0	---	0.00	29.953 
20:40	76.7	76.7	77.8	34	46.2	0	0	---	0.00	29.953 
20:45	76.3	76.3	77.6	34	45.8	0	0	---	0.00	29.955 
20:50	75.8	75.8	77.6	36	46.9	0	0	---	0.00	29.955 
20:55	75.4	75.4	77.5	38	48.0	0	0	---	0.00	29.955 
21:00	74.9	74.9	74.9	39	48.3	0	0	---	0.00	29.956 
21:05	74.6	74.6	74.6	39	48.0	0	0	---	0.00	29.956 
21:10	74.0	74.0	74.0	41	48.8	0	0	---	0.00	29.956 
21:15	73.7	73.7	73.7	40	47.9	0	0	---	0.00	29.954 
21:20	73.2	73.2	73.2	42	48.7	0	0	---	0.00	29.954 
21:25	72.8	72.8	72.8	43	49.0	0	0	---	0.00	29.954 
21:30	72.1	72.1	72.1	44	49.0	0	0	---	0.00	29.954 
21:35	71.8	71.8	71.8	45	49.3	0	0	---	0.00	29.954 
21:40	71.5	71.5	71.5	45	49.0	0	0	---	0.00	29.954 
21:45	71.1	71.1	71.1	45	48.7	0	0	---	0.00	29.954 
21:50	70.9	70.9	70.9	46	49.1	0	0	---	0.00	29.954 
21:55	70.6	70.6	70.6	48	49.9	0	0	---	0.00	29.954 
22:00	70.3	70.3	70.3	49	50.2	0	0	---	0.00	29.956 
22:05	69.9	69.9	69.9	50	50.4	0	0	---	0.00	29.956 
22:10	69.8	69.8	69.8	51	50.8	0	0	---	0.00	29.956 
22:15	69.6	69.6	69.6	51	50.7	0	0	---	0.00	29.956 
22:20	69.3	69.3	69.3	52	50.9	0	0	---	0.00	29.956 
22:25	68.9	68.9	68.9	52	50.5	0	0	---	0.00	29.956 
22:30	68.8	68.8	68.8	54	51.5	0	0	---	0.00	29.956 
22:35	68.6	68.6	68.6	54	51.3	0	0	---	0.00	29.956 
22:40	68.4	68.4	68.4	55	51.6	0	0	---	0.00	29.956 
22:45	68.3	68.3	68.3	56	52.0	0	0	---	0.00	29.958 
22:50	68.1	68.1	68.1	57	52.3	0	0	---	0.00	29.958 
22:55	67.9	67.9	67.9	57	52.1	0	0	---	0.00	29.958 
23:00	67.8	67.8	67.8	58	52.5	0	0	---	0.00	29.961 
23:05	67.6	67.6	67.6	58	52.3	0	0	---	0.00	29.961 
23:10	67.4	67.4	67.4	59	52.6	0	0	---	0.00	29.961 
23:15	67.3	67.3	67.3	59	52.5	0	0	---	0.00	29.965 
23:20	67.1	67.1	67.1	60	52.7	0	0	---	0.00	29.965 
23:25	66.9	66.9	66.9	60	52.6	0	0	---	0.00	29.965 
23:30	66.8	66.8	66.8	60	52.5	0	0	---	0.00	29.963 
23:35	66.6	66.6	66.6	61	52.7	0	0	---	0.00	29.963 
23:40	66.4	66.4	66.4	61	52.5	0	0	---	0.00	29.963 
23:45	66.3	66.3	66.3	62	52.9	0	0	---	0.00	29.959 
23:50	66.1	66.1	66.1	62	52.7	0	0	---	0.00	29.959 
23:55	66.1	66.1	66.1	64	53.6	0	0	---	0.00	29.959 

CoCoRaHS
IN-AL-39
A2 Web Hosting
Creative Commons License
GoDaddy
search engine by freefind advanced

loaded 2018-11-15 13:33:20 • last modified 2010-11-18 10:43:29
Privacy PolicyDisclaimer
• wx.awcolley.com is powered by PmWiki v.2002016 •
• all content (unless otherwise noted) © 2018 A W Colley